createdAt,value
2023-03-27T00:01:16.894Z,44.03
2023-03-27T00:03:44.906Z,42.90
2023-03-27T00:06:17.167Z,17.93
2023-03-27T00:08:51.019Z,16.67
2023-03-27T00:11:19.853Z,27.20
2023-03-27T00:13:49.848Z,18.67
2023-03-27T00:16:27.653Z,21.73
2023-03-27T00:18:55.570Z,15.63
2023-03-27T00:21:22.977Z,20.60
2023-03-27T00:23:50.212Z,18.53
2023-03-27T00:26:17.339Z,35.63
2023-03-27T00:28:44.561Z,19.17
2023-03-27T00:31:14.500Z,26.97
2023-03-27T00:33:42.650Z,12.83
2023-03-27T00:36:10.734Z,12.50
2023-03-27T00:38:39.733Z,13.30
2023-03-27T00:41:08.565Z,12.97
2023-03-27T00:43:42.340Z,14.93
2023-03-27T00:46:15.525Z,22.43
2023-03-27T00:48:47.191Z,21.00
2023-03-27T00:51:15.954Z,13.77
2023-03-27T00:53:44.296Z,12.73
2023-03-27T00:56:12.634Z,21.30
2023-03-27T00:59:03.143Z,39.97
2023-03-27T01:01:32.185Z,37.30
2023-03-27T01:04:06.923Z,40.00
2023-03-27T01:06:34.853Z,31.93
2023-03-27T01:09:01.934Z,39.13
2023-03-27T01:11:52.036Z,41.07
2023-03-27T01:14:19.005Z,43.13
2023-03-27T01:17:31.164Z,39.17
2023-03-27T01:20:47.958Z,43.13
2023-03-27T01:24:00.579Z,40.83
2023-03-27T01:26:43.080Z,39.00
2023-03-27T01:29:33.619Z,45.33
2023-03-27T01:33:00.266Z,45.20
2023-03-27T01:36:03.077Z,39.27
2023-03-27T01:39:11.055Z,40.60
2023-03-27T01:41:54.909Z,42.20
2023-03-27T01:44:55.937Z,42.00
2023-03-27T01:47:56.185Z,39.43
2023-03-27T01:50:33.040Z,38.80
2023-03-27T01:53:05.874Z,42.10
2023-03-27T01:55:39.081Z,37.33
2023-03-27T01:58:20.243Z,40.30
2023-03-27T02:01:04.283Z,39.20
2023-03-27T02:03:36.290Z,38.70
2023-03-27T02:06:10.937Z,35.73
2023-03-27T02:09:01.018Z,37.47
2023-03-27T02:11:38.669Z,41.07
2023-03-27T02:14:20.305Z,43.47
2023-03-27T02:16:54.967Z,51.67
2023-03-27T02:19:33.536Z,50.70
2023-03-27T02:22:01.039Z,47.87
2023-03-27T02:24:28.917Z,52.13
2023-03-27T02:27:07.676Z,57.77
2023-03-27T02:29:56.539Z,54.10
2023-03-27T02:32:44.622Z,45.00
2023-03-27T02:35:35.676Z,46.20
2023-03-27T02:38:31.761Z,45.07
2023-03-27T02:41:20.274Z,42.83
2023-03-27T02:44:24.493Z,38.13
2023-03-27T02:47:36.038Z,36.30
2023-03-27T02:50:18.064Z,38.97
2023-03-27T02:53:01.146Z,41.13
2023-03-27T02:55:34.755Z,35.60
2023-03-27T02:58:12.943Z,40.00
2023-03-27T03:00:52.104Z,41.53
2023-03-27T03:03:57.583Z,36.83
2023-03-27T03:06:44.644Z,28.57
2023-03-27T03:09:14.882Z,38.93
2023-03-27T03:11:52.208Z,28.60
2023-03-27T03:14:25.514Z,39.90
2023-03-27T03:16:52.530Z,37.37
2023-03-27T03:19:19.531Z,39.97
2023-03-27T03:21:49.416Z,38.60
2023-03-27T03:24:17.640Z,34.37
2023-03-27T03:26:45.235Z,27.47
2023-03-27T03:29:14.198Z,30.50
2023-03-27T03:31:49.656Z,34.90
2023-03-27T03:34:18.962Z,38.20
2023-03-27T03:36:50.098Z,38.00
2023-03-27T03:39:22.948Z,29.30
2023-03-27T03:41:50.727Z,33.07
2023-03-27T03:44:18.823Z,31.80
2023-03-27T03:46:45.808Z,32.30
2023-03-27T03:49:12.757Z,35.10
2023-03-27T03:51:39.706Z,36.33
2023-03-27T03:54:07.090Z,28.47
2023-03-27T03:56:34.759Z,26.20
2023-03-27T03:59:01.829Z,26.23
2023-03-27T04:01:30.104Z,36.37
2023-03-27T04:04:02.278Z,36.77
2023-03-27T04:06:48.003Z,21.73
2023-03-27T04:09:15.103Z,24.63
2023-03-27T04:12:04.765Z,28.70
2023-03-27T04:14:55.536Z,29.93
2023-03-27T04:17:43.360Z,33.60
2023-03-27T04:20:15.349Z,31.30
2023-03-27T04:22:46.580Z,24.10
2023-03-27T04:25:17.422Z,24.83
2023-03-27T04:27:45.354Z,18.20
2023-03-27T04:30:22.351Z,13.33
2023-03-27T04:33:19.009Z,24.33
2023-03-27T04:36:05.581Z,23.77
2023-03-27T04:38:42.909Z,22.33
2023-03-27T04:41:11.576Z,19.57
2023-03-27T04:43:41.702Z,25.67
2023-03-27T04:46:09.414Z,16.40
2023-03-27T04:48:38.795Z,17.90
2023-03-27T04:51:18.719Z,16.33
2023-03-27T04:53:46.622Z,12.50
2023-03-27T04:56:14.714Z,14.40
2023-03-27T04:58:45.720Z,14.23
2023-03-27T05:01:15.702Z,12.10
2023-03-27T05:04:06.042Z,12.27
2023-03-27T05:06:43.396Z,14.43
2023-03-27T05:09:14.178Z,30.67
2023-03-27T05:11:41.217Z,28.37
2023-03-27T05:14:09.155Z,32.83
2023-03-27T05:16:38.081Z,21.27
2023-03-27T05:19:06.756Z,26.77
2023-03-27T05:21:49.462Z,22.57
2023-03-27T05:24:16.805Z,31.03
2023-03-27T05:26:45.589Z,12.93
2023-03-27T05:29:12.636Z,14.77
2023-03-27T05:31:43.442Z,23.27
2023-03-27T05:34:38.709Z,22.17
2023-03-27T05:37:09.446Z,27.77
2023-03-27T05:39:56.776Z,23.27
2023-03-27T05:42:23.732Z,23.93
2023-03-27T05:44:51.151Z,16.33
2023-03-27T05:47:20.370Z,19.97
2023-03-27T05:49:47.795Z,23.10
2023-03-27T05:52:16.203Z,16.57
2023-03-27T05:54:43.225Z,22.23
2023-03-27T05:57:11.776Z,22.13
2023-03-27T05:59:40.686Z,20.83
2023-03-27T06:02:21.405Z,20.90
2023-03-27T06:04:56.450Z,20.30
2023-03-27T06:07:35.975Z,44.33
2023-03-27T06:10:13.781Z,49.27
2023-03-27T06:12:46.422Z,34.70
2023-03-27T06:15:29.519Z,16.40
2023-03-27T06:18:09.644Z,22.53
2023-03-27T06:20:40.620Z,11.20
2023-03-27T06:23:09.164Z,15.00
2023-03-27T06:25:39.315Z,13.70
2023-03-27T06:28:09.498Z,22.20
2023-03-27T06:30:43.145Z,32.67
2023-03-27T06:33:32.789Z,21.40
2023-03-27T06:36:05.372Z,18.00
2023-03-27T06:38:37.189Z,31.40
2023-03-27T06:41:05.640Z,22.93
2023-03-27T06:43:57.262Z,82.23
2023-03-27T06:46:45.981Z,124.53
2023-03-27T06:49:19.113Z,140.57
2023-03-27T06:51:46.766Z,48.03
2023-03-27T06:54:14.673Z,16.77
2023-03-27T06:56:50.585Z,84.83
2023-03-27T06:59:22.148Z,38.40
2023-03-27T07:01:54.744Z,87.33
2023-03-27T07:04:54.173Z,133.03
2023-03-27T07:07:34.910Z,43.87
2023-03-27T07:10:05.707Z,67.37
2023-03-27T07:12:32.718Z,59.60
2023-03-27T07:15:00.853Z,72.20
2023-03-27T07:17:41.865Z,70.03
2023-03-27T07:20:14.900Z,68.10
2023-03-27T07:22:44.529Z,47.17
2023-03-27T07:25:22.607Z,33.07
2023-03-27T07:27:50.964Z,63.47
2023-03-27T07:30:18.513Z,48.40
2023-03-27T07:32:47.050Z,62.07
2023-03-27T07:35:15.091Z,85.90
2023-03-27T07:37:42.809Z,58.07
2023-03-27T07:40:38.991Z,40.70
2023-03-27T07:43:39.187Z,18.70
2023-03-27T07:46:08.557Z,43.50
2023-03-27T07:48:35.954Z,9.97
2023-03-27T07:51:13.401Z,37.33
2023-03-27T07:53:41.848Z,41.30
2023-03-27T07:56:21.998Z,53.13
2023-03-27T07:58:51.528Z,50.53
2023-03-27T08:01:21.535Z,78.00
2023-03-27T08:03:49.604Z,43.27
2023-03-27T08:06:19.273Z,63.23
2023-03-27T08:08:47.218Z,36.03
2023-03-27T08:11:23.543Z,45.07
2023-03-27T08:13:54.852Z,21.83
2023-03-27T08:16:21.924Z,69.40
2023-03-27T08:18:49.789Z,42.60
2023-03-27T08:21:17.398Z,67.17
2023-03-27T08:23:48.935Z,68.27
2023-03-27T08:26:27.827Z,49.00
2023-03-27T08:29:01.854Z,47.83
2023-03-27T08:31:31.318Z,48.70
2023-03-27T08:34:01.263Z,49.33
2023-03-27T08:36:38.324Z,24.93
2023-03-27T08:39:08.073Z,51.70
2023-03-27T08:41:55.754Z,38.80
2023-03-27T08:44:31.185Z,37.00
2023-03-27T08:47:25.211Z,36.93
2023-03-27T08:50:05.505Z,53.10
2023-03-27T08:52:45.127Z,67.27
2023-03-27T08:55:28.712Z,55.17
2023-03-27T08:58:04.782Z,53.43
2023-03-27T09:00:39.502Z,53.87
2023-03-27T09:03:44.979Z,51.93
2023-03-27T09:06:26.333Z,49.70
2023-03-27T09:09:07.602Z,50.00
2023-03-27T09:12:23.600Z,50.93
2023-03-27T09:15:03.224Z,45.63
2023-03-27T09:17:39.167Z,46.63
2023-03-27T09:20:33.890Z,44.20
2023-03-27T09:23:25.970Z,44.17
2023-03-27T09:26:19.468Z,45.70
2023-03-27T09:29:05.272Z,33.17
2023-03-27T09:31:49.585Z,36.37
2023-03-27T09:34:34.297Z,3.70
2023-03-27T09:37:02.579Z,7.27
2023-03-27T09:39:33.924Z,124.10
2023-03-27T09:42:26.856Z,72.17
2023-03-27T09:44:58.610Z,134.67
2023-03-27T09:47:41.252Z,72.23
2023-03-27T09:50:28.802Z,70.03
2023-03-27T09:53:11.877Z,112.63
2023-03-27T09:56:12.896Z,118.83
2023-03-27T09:58:50.738Z,57.17
2023-03-27T10:01:38.628Z,53.63
2023-03-27T10:04:18.890Z,53.97
2023-03-27T10:07:01.722Z,51.77
2023-03-27T10:10:17.483Z,52.47
2023-03-27T10:13:14.181Z,53.20
2023-03-27T10:15:48.650Z,50.17
2023-03-27T10:18:30.034Z,54.53
2023-03-27T10:21:11.794Z,53.60
2023-03-27T10:23:43.999Z,54.53
2023-03-27T10:26:27.870Z,54.17
2023-03-27T10:29:05.150Z,52.40
2023-03-27T10:31:52.061Z,54.00
2023-03-27T10:34:51.973Z,67.27
2023-03-27T10:37:34.367Z,60.93
2023-03-27T10:40:25.547Z,57.07
2023-03-27T10:43:01.582Z,55.10
2023-03-27T10:45:30.275Z,55.43
2023-03-27T10:48:01.662Z,66.87
2023-03-27T10:50:45.569Z,52.00
2023-03-27T10:53:21.790Z,58.53
2023-03-27T10:56:24.965Z,54.07
2023-03-27T10:59:01.797Z,53.40
2023-03-27T11:01:42.453Z,55.33
2023-03-27T11:04:25.742Z,62.20
2023-03-27T11:07:06.444Z,53.57
2023-03-27T11:09:48.381Z,59.43
2023-03-27T11:12:18.867Z,52.57
2023-03-27T11:15:14.659Z,53.53
2023-03-27T11:18:03.455Z,59.20
2023-03-27T11:21:03.676Z,57.03
2023-03-27T11:23:54.501Z,52.33
2023-03-27T11:26:35.838Z,52.70
2023-03-27T11:29:13.899Z,53.20
2023-03-27T11:31:54.430Z,52.63
2023-03-27T11:34:38.258Z,53.20
2023-03-27T11:37:39.676Z,52.30
2023-03-27T11:40:42.769Z,51.77
2023-03-27T11:43:16.449Z,52.03
2023-03-27T11:46:33.553Z,52.20
2023-03-27T11:49:27.960Z,51.97
2023-03-27T11:52:10.649Z,51.13
2023-03-27T11:54:40.649Z,53.53
2023-03-27T11:57:24.652Z,50.27
2023-03-27T12:00:11.683Z,52.60
2023-03-27T12:03:34.700Z,52.63
2023-03-27T12:06:14.655Z,52.27
2023-03-27T12:09:11.242Z,52.10
2023-03-27T12:12:34.503Z,53.90
2023-03-27T12:15:35.603Z,52.97
2023-03-27T12:18:36.307Z,52.60
2023-03-27T12:21:32.691Z,54.30
2023-03-27T12:24:36.565Z,52.47
2023-03-27T12:27:49.227Z,53.00
2023-03-27T12:31:11.532Z,51.93
2023-03-27T12:34:03.578Z,50.67
2023-03-27T12:36:38.619Z,51.97
2023-03-27T12:39:20.137Z,51.93
2023-03-27T12:41:47.730Z,52.27
2023-03-27T12:44:32.280Z,51.13
2023-03-27T12:47:09.046Z,50.40
2023-03-27T12:49:47.969Z,50.40
2023-03-27T12:52:28.583Z,51.90
2023-03-27T12:55:18.933Z,51.80
2023-03-27T12:58:00.649Z,51.40
2023-03-27T13:01:00.197Z,52.00
2023-03-27T13:04:18.976Z,52.03
2023-03-27T13:07:09.003Z,51.70
2023-03-27T13:10:38.415Z,51.77
2023-03-27T13:13:31.653Z,50.90
2023-03-27T13:16:36.967Z,37.77
2023-03-27T13:19:15.319Z,53.40
2023-03-27T13:22:33.196Z,49.77
2023-03-27T13:25:35.715Z,45.73
2023-03-27T13:28:35.704Z,41.87
2023-03-27T13:31:14.795Z,40.90
2023-03-27T13:34:34.232Z,41.03
2023-03-27T13:37:16.683Z,29.70
2023-03-27T13:40:27.749Z,43.40
2023-03-27T13:43:16.910Z,47.87
2023-03-27T13:45:52.205Z,42.33
2023-03-27T13:49:07.182Z,47.23
2023-03-27T13:52:41.631Z,47.03
2023-03-27T13:55:47.160Z,48.93
2023-03-27T13:59:38.639Z,50.70
2023-03-27T14:02:38.791Z,52.50
2023-03-27T14:05:36.637Z,52.10
2023-03-27T14:08:33.290Z,48.80
2023-03-27T14:11:47.183Z,50.50
2023-03-27T14:14:51.553Z,44.90
2023-03-27T14:17:25.467Z,48.47
2023-03-27T14:20:06.497Z,35.33
2023-03-27T14:22:54.582Z,23.50
2023-03-27T14:25:38.350Z,34.87
2023-03-27T14:28:46.797Z,48.20
2023-03-27T14:31:19.081Z,50.47
2023-03-27T14:34:22.346Z,51.23
2023-03-27T14:36:52.260Z,45.53
2023-03-27T14:39:39.595Z,49.73
2023-03-27T14:42:17.078Z,53.97
2023-03-27T14:44:47.850Z,31.63
2023-03-27T14:47:22.811Z,52.17
2023-03-27T14:49:53.832Z,51.53
2023-03-27T14:52:35.762Z,33.77
2023-03-27T14:55:26.886Z,23.03
2023-03-27T14:58:19.265Z,37.90
2023-03-27T15:01:00.349Z,25.10
2023-03-27T15:03:35.329Z,29.07
2023-03-27T15:06:19.420Z,49.90
2023-03-27T15:08:55.877Z,67.33
2023-03-27T15:11:59.016Z,58.70
2023-03-27T15:14:31.383Z,47.93
2023-03-27T15:17:06.763Z,46.30
2023-03-27T15:19:45.673Z,32.33
2023-03-27T15:22:27.653Z,8.20
2023-03-27T15:25:23.124Z,14.83
2023-03-27T15:27:55.154Z,23.03
2023-03-27T15:30:43.719Z,28.27
2023-03-27T15:33:21.997Z,56.90
2023-03-27T15:35:53.677Z,59.30
2023-03-27T15:38:29.228Z,57.20
2023-03-27T15:41:27.054Z,54.27
2023-03-27T15:44:04.585Z,56.53
2023-03-27T15:46:47.059Z,53.27
2023-03-27T15:49:28.526Z,51.97
2023-03-27T15:51:57.356Z,52.47
2023-03-27T15:54:33.311Z,52.67
2023-03-27T15:57:11.616Z,52.40
2023-03-27T15:59:52.067Z,53.80
2023-03-27T16:02:21.880Z,53.63
2023-03-27T16:04:56.622Z,59.77
2023-03-27T16:07:27.907Z,70.00
2023-03-27T16:10:02.692Z,72.57
2023-03-27T16:12:52.486Z,56.77
2023-03-27T16:15:41.452Z,63.20
2023-03-27T16:18:34.379Z,51.93
2023-03-27T16:21:10.257Z,58.27
2023-03-27T16:23:37.397Z,51.77
2023-03-27T16:26:09.067Z,51.43
2023-03-27T16:28:36.508Z,50.60
2023-03-27T16:31:19.787Z,51.30
2023-03-27T16:33:47.101Z,48.20
2023-03-27T16:36:20.868Z,50.27
2023-03-27T16:38:47.873Z,50.50
2023-03-27T16:41:17.717Z,50.03
2023-03-27T16:43:45.485Z,51.40
2023-03-27T16:46:26.521Z,50.53
2023-03-27T16:48:54.965Z,50.47
2023-03-27T16:51:25.148Z,51.63
2023-03-27T16:53:53.003Z,51.57
2023-03-27T16:56:21.241Z,51.87
2023-03-27T16:58:48.215Z,51.17
2023-03-27T17:01:15.324Z,50.97
2023-03-27T17:03:42.361Z,50.67
2023-03-27T17:06:12.486Z,52.00
2023-03-27T17:08:39.544Z,51.33
2023-03-27T17:11:13.196Z,51.67
2023-03-27T17:13:43.466Z,52.20
2023-03-27T17:16:11.207Z,53.37
2023-03-27T17:18:38.180Z,54.60
2023-03-27T17:21:05.690Z,51.97
2023-03-27T17:23:33.013Z,52.90
2023-03-27T17:26:04.788Z,45.20
2023-03-27T17:28:32.123Z,52.07
2023-03-27T17:31:04.661Z,50.47
2023-03-27T17:33:33.544Z,53.07
2023-03-27T17:36:00.768Z,51.83
2023-03-27T17:38:28.518Z,52.60
2023-03-27T17:40:55.663Z,51.20
2023-03-27T17:43:22.628Z,52.50
2023-03-27T17:45:51.111Z,54.50
2023-03-27T17:48:18.423Z,54.63
2023-03-27T17:51:01.138Z,52.13
2023-03-27T17:53:35.744Z,54.00
2023-03-27T17:56:02.856Z,53.50
2023-03-27T17:58:31.290Z,52.90
2023-03-27T18:00:58.278Z,52.17
2023-03-27T18:03:25.490Z,53.50
2023-03-27T18:05:52.774Z,52.67
2023-03-27T18:08:20.012Z,52.93
2023-03-27T18:10:50.484Z,52.70
2023-03-27T18:13:18.887Z,52.60
2023-03-27T18:15:46.408Z,54.30
2023-03-27T18:18:13.432Z,56.73
2023-03-27T18:20:40.890Z,59.37
2023-03-27T18:23:07.881Z,57.07
2023-03-27T18:25:34.796Z,50.80
2023-03-27T18:28:01.778Z,41.63
2023-03-27T18:30:30.979Z,52.17
2023-03-27T18:32:59.212Z,52.13
2023-03-27T18:35:26.258Z,47.30
2023-03-27T18:37:53.210Z,50.50
2023-03-27T18:40:20.541Z,51.13
2023-03-27T18:42:47.581Z,51.13
2023-03-27T18:45:16.871Z,50.63
2023-03-27T18:47:44.915Z,49.70
2023-03-27T18:50:14.044Z,48.13
2023-03-27T18:52:41.703Z,48.43
2023-03-27T18:55:09.999Z,50.60
2023-03-27T18:57:38.173Z,49.87
2023-03-27T19:00:09.826Z,50.23
2023-03-27T19:02:36.990Z,49.87
2023-03-27T19:05:04.859Z,51.23
2023-03-27T19:07:31.891Z,51.23
2023-03-27T19:09:58.872Z,50.03
2023-03-27T19:12:32.098Z,50.53
2023-03-27T19:15:32.090Z,50.47
2023-03-27T19:18:02.391Z,49.77
2023-03-27T19:20:48.022Z,48.90
2023-03-27T19:23:31.697Z,49.17
2023-03-27T19:26:11.324Z,50.07
2023-03-27T19:28:42.400Z,52.43
2023-03-27T19:31:11.745Z,54.93
2023-03-27T19:33:42.347Z,50.13
2023-03-27T19:36:10.076Z,52.23
2023-03-27T19:38:38.544Z,51.63
2023-03-27T19:41:09.386Z,54.27
2023-03-27T19:43:37.125Z,56.17
2023-03-27T19:46:15.796Z,61.00
2023-03-27T19:48:51.330Z,63.47
2023-03-27T19:51:26.961Z,53.27
2023-03-27T19:53:55.515Z,51.60
2023-03-27T19:56:24.949Z,70.60
2023-03-27T19:58:52.359Z,66.93
2023-03-27T20:01:20.102Z,68.03
2023-03-27T20:03:47.284Z,70.57
2023-03-27T20:06:19.486Z,62.97
2023-03-27T20:08:46.589Z,69.80
2023-03-27T20:11:15.750Z,67.40
2023-03-27T20:13:55.590Z,71.73
2023-03-27T20:16:26.340Z,56.10
2023-03-27T20:18:55.453Z,60.03
2023-03-27T20:21:25.559Z,58.53
2023-03-27T20:23:55.717Z,70.50
2023-03-27T20:26:39.248Z,61.53
2023-03-27T20:29:23.297Z,58.33
2023-03-27T20:31:50.464Z,57.13
2023-03-27T20:34:19.738Z,60.80
2023-03-27T20:36:47.468Z,58.50
2023-03-27T20:39:27.251Z,52.70
2023-03-27T20:41:58.828Z,55.80
2023-03-27T20:44:36.448Z,53.80
2023-03-27T20:47:10.830Z,56.70
2023-03-27T20:49:42.973Z,63.67
2023-03-27T20:52:13.589Z,54.40
2023-03-27T20:54:41.252Z,58.53
2023-03-27T20:57:11.268Z,58.27
2023-03-27T20:59:38.439Z,68.20
2023-03-27T21:02:06.034Z,57.53
2023-03-27T21:04:33.169Z,63.77
2023-03-27T21:07:00.196Z,11.30
2023-03-27T21:09:27.951Z,10.90
2023-03-27T21:11:56.158Z,6.80
2023-03-27T21:14:23.643Z,6.93
2023-03-27T21:16:51.150Z,6.53
2023-03-27T21:19:20.624Z,6.10
2023-03-27T21:21:47.966Z,5.87
2023-03-27T21:24:15.500Z,8.63
2023-03-27T21:26:42.891Z,10.20
2023-03-27T21:29:10.783Z,9.93
2023-03-27T21:31:41.427Z,11.40
2023-03-27T21:34:09.040Z,12.57
2023-03-27T21:36:37.889Z,7.33
2023-03-27T21:39:05.532Z,6.53
2023-03-27T21:41:32.615Z,6.60
2023-03-27T21:43:59.547Z,5.77
2023-03-27T21:46:26.792Z,8.20
2023-03-27T21:48:53.767Z,5.23
2023-03-27T21:51:21.195Z,5.33
2023-03-27T21:53:48.423Z,5.13
2023-03-27T21:56:15.651Z,5.40
2023-03-27T21:58:42.667Z,3.67
2023-03-27T22:01:09.775Z,4.63
2023-03-27T22:03:36.779Z,6.10
2023-03-27T22:06:12.391Z,8.47
2023-03-27T22:08:42.712Z,5.00
2023-03-27T22:11:11.612Z,4.03
2023-03-27T22:13:39.117Z,7.43
2023-03-27T22:16:12.327Z,4.13
2023-03-27T22:18:39.964Z,5.27
2023-03-27T22:21:26.311Z,5.00
2023-03-27T22:23:56.270Z,6.37
2023-03-27T22:26:30.740Z,5.43
2023-03-27T22:28:58.028Z,4.63
2023-03-27T22:31:26.225Z,4.43
2023-03-27T22:33:53.934Z,4.43
2023-03-27T22:36:21.465Z,4.57
2023-03-27T22:38:49.009Z,5.60
2023-03-27T22:41:16.848Z,5.87
2023-03-27T22:43:44.124Z,5.60
2023-03-27T22:46:15.751Z,7.43
2023-03-27T22:48:43.206Z,8.47
2023-03-27T22:51:12.449Z,14.60
2023-03-27T22:53:40.873Z,13.50
2023-03-27T22:56:08.579Z,26.03
2023-03-27T22:58:35.650Z,16.57
2023-03-27T23:01:05.368Z,30.50
2023-03-27T23:03:32.857Z,33.87
2023-03-27T23:06:00.038Z,69.33
2023-03-27T23:08:28.569Z,55.93
2023-03-27T23:11:05.497Z,45.30
2023-03-27T23:13:34.911Z,31.73
2023-03-27T23:16:02.406Z,78.33
2023-03-27T23:18:29.555Z,23.83
2023-03-27T23:20:59.542Z,20.70
2023-03-27T23:23:28.425Z,11.80
2023-03-27T23:25:57.754Z,11.30
2023-03-27T23:28:26.570Z,11.07
2023-03-27T23:30:59.601Z,11.43
2023-03-27T23:33:28.308Z,9.63
2023-03-27T23:36:22.171Z,18.47
2023-03-27T23:38:51.463Z,7.77
2023-03-27T23:41:19.508Z,8.73
2023-03-27T23:43:46.820Z,9.13
2023-03-27T23:46:14.433Z,13.37
2023-03-27T23:48:43.335Z,7.30
2023-03-27T23:51:12.894Z,9.03
2023-03-27T23:53:40.447Z,5.77
2023-03-27T23:56:08.172Z,4.80
2023-03-27T23:58:37.190Z,5.43
